createdAt,value
2019-03-29T00:00:48.122Z,8.36
2019-03-29T00:03:16.404Z,8.33
2019-03-29T00:05:44.887Z,8.32
2019-03-29T00:08:13.257Z,8.28
2019-03-29T00:10:41.723Z,8.26
2019-03-29T00:13:10.010Z,8.26
2019-03-29T00:15:38.388Z,8.21
2019-03-29T00:18:06.950Z,8.16
2019-03-29T00:20:35.284Z,8.11
2019-03-29T00:23:03.615Z,8.06
2019-03-29T00:25:33.057Z,8.00
2019-03-29T00:28:01.547Z,7.96
2019-03-29T00:30:29.896Z,7.96
2019-03-29T00:32:58.207Z,7.92
2019-03-29T00:35:26.485Z,7.85
2019-03-29T00:37:55.772Z,7.77
2019-03-29T00:40:24.268Z,7.77
2019-03-29T00:42:52.850Z,7.81
2019-03-29T00:45:21.530Z,7.81
2019-03-29T00:47:49.828Z,7.81
2019-03-29T00:50:18.134Z,7.75
2019-03-29T00:52:46.446Z,7.69
2019-03-29T00:55:15.095Z,7.63
2019-03-29T00:57:43.381Z,7.56
2019-03-29T01:00:12.046Z,7.53
2019-03-29T01:02:40.358Z,7.49
2019-03-29T01:05:08.802Z,7.48
2019-03-29T01:07:37.105Z,7.47
2019-03-29T01:10:06.481Z,7.42
2019-03-29T01:12:35.083Z,7.37
2019-03-29T01:15:04.729Z,7.34
2019-03-29T01:17:33.020Z,7.33
2019-03-29T01:20:01.340Z,7.32
2019-03-29T01:22:29.634Z,7.31
2019-03-29T01:24:58.195Z,7.31
2019-03-29T01:27:26.503Z,7.27
2019-03-29T01:29:55.048Z,7.25
2019-03-29T01:32:23.371Z,7.24
2019-03-29T01:34:51.655Z,7.24
2019-03-29T01:37:20.149Z,7.24
2019-03-29T01:39:48.456Z,7.15
2019-03-29T01:42:17.044Z,7.09
2019-03-29T01:44:45.334Z,7.05
2019-03-29T01:47:13.643Z,7.00
2019-03-29T01:49:42.294Z,6.97
2019-03-29T01:52:10.602Z,6.98
2019-03-29T01:54:38.922Z,6.93
2019-03-29T01:57:07.526Z,6.93
2019-03-29T01:59:36.113Z,6.94
2019-03-29T02:02:04.400Z,6.96
2019-03-29T02:04:32.971Z,6.96
2019-03-29T02:07:01.258Z,6.99
2019-03-29T02:09:30.264Z,6.99
2019-03-29T02:11:59.249Z,7.01
2019-03-29T02:14:27.880Z,6.97
2019-03-29T02:16:56.265Z,6.92
2019-03-29T02:19:24.574Z,6.88
2019-03-29T02:21:52.870Z,6.80
2019-03-29T02:24:21.179Z,6.71
2019-03-29T02:26:49.479Z,6.67
2019-03-29T02:29:17.872Z,6.61
2019-03-29T02:31:46.198Z,6.62
2019-03-29T02:34:15.805Z,6.60
2019-03-29T02:36:44.673Z,6.57
2019-03-29T02:39:12.974Z,6.57
2019-03-29T02:41:41.257Z,6.53
2019-03-29T02:44:09.575Z,6.49
2019-03-29T02:46:38.180Z,6.45
2019-03-29T02:49:06.858Z,6.46
2019-03-29T02:51:35.177Z,6.47
2019-03-29T02:54:03.487Z,6.45
2019-03-29T02:56:32.114Z,6.42
2019-03-29T02:59:00.417Z,6.35
2019-03-29T03:01:28.790Z,6.31
2019-03-29T03:03:57.115Z,6.32
2019-03-29T03:06:25.443Z,6.30
2019-03-29T03:09:11.764Z,6.24
2019-03-29T03:11:23.783Z,6.23
2019-03-29T03:13:52.100Z,6.23
2019-03-29T03:16:20.390Z,6.24
2019-03-29T03:18:48.708Z,6.25
2019-03-29T03:21:17.013Z,6.23
2019-03-29T03:23:45.340Z,6.19
2019-03-29T03:26:13.627Z,6.10
2019-03-29T03:28:41.956Z,6.05
2019-03-29T03:31:10.248Z,6.01
2019-03-29T03:33:38.568Z,5.96
2019-03-29T03:36:06.852Z,5.91
2019-03-29T03:38:35.204Z,5.90
2019-03-29T03:41:03.508Z,5.89
2019-03-29T03:43:31.853Z,5.86
2019-03-29T03:46:00.611Z,5.84
2019-03-29T03:48:28.890Z,5.84
2019-03-29T03:50:57.667Z,5.81
2019-03-29T03:53:25.974Z,5.80
2019-03-29T03:55:55.230Z,5.83
2019-03-29T03:58:24.318Z,5.80
2019-03-29T04:00:54.561Z,5.77
2019-03-29T04:03:23.300Z,5.77
2019-03-29T04:05:51.761Z,5.80
2019-03-29T04:08:20.396Z,5.80
2019-03-29T04:10:48.723Z,5.78
2019-03-29T04:13:17.116Z,5.72
2019-03-29T04:15:45.463Z,5.66
2019-03-29T04:18:16.074Z,5.64
2019-03-29T04:20:43.818Z,5.63
2019-03-29T04:23:12.368Z,5.62
2019-03-29T04:25:40.716Z,5.63
2019-03-29T04:28:09.049Z,5.67
2019-03-29T04:30:37.667Z,5.68
2019-03-29T04:33:10.574Z,5.68
2019-03-29T04:35:36.266Z,5.67
2019-03-29T04:38:04.666Z,5.65
2019-03-29T04:40:33.426Z,5.66
2019-03-29T04:43:01.811Z,5.64
2019-03-29T04:45:30.126Z,5.60
2019-03-29T04:47:58.441Z,5.57
2019-03-29T04:50:26.762Z,5.56
2019-03-29T04:52:55.081Z,5.53
2019-03-29T04:55:23.411Z,5.56
2019-03-29T04:57:51.713Z,5.53
2019-03-29T05:00:20.367Z,5.51
2019-03-29T05:02:48.688Z,5.47
2019-03-29T05:05:17.374Z,5.42
2019-03-29T05:07:46.029Z,5.37
2019-03-29T05:10:21.126Z,5.38
2019-03-29T05:12:44.442Z,5.38
2019-03-29T05:15:12.794Z,5.41
2019-03-29T05:17:41.107Z,5.38
2019-03-29T05:20:09.397Z,5.34
2019-03-29T05:22:37.715Z,5.35
2019-03-29T05:25:06.687Z,5.33
2019-03-29T05:27:35.281Z,5.32
2019-03-29T05:30:04.358Z,5.31
2019-03-29T05:32:32.971Z,5.35
2019-03-29T05:35:01.275Z,5.40
2019-03-29T05:37:29.593Z,5.45
2019-03-29T05:39:57.899Z,5.44
2019-03-29T05:42:26.300Z,5.47
2019-03-29T05:44:54.619Z,5.53
2019-03-29T05:47:22.904Z,5.57
2019-03-29T05:49:51.213Z,5.63
2019-03-29T05:52:19.507Z,5.66
2019-03-29T05:54:47.822Z,5.68
2019-03-29T05:57:16.483Z,5.71
2019-03-29T05:59:44.775Z,5.79
2019-03-29T06:02:13.088Z,5.90
2019-03-29T06:04:41.414Z,5.98
2019-03-29T06:07:09.711Z,6.07
2019-03-29T06:09:38.029Z,6.15
2019-03-29T06:12:06.339Z,6.24
2019-03-29T06:14:34.636Z,6.29
2019-03-29T06:17:02.962Z,6.35
2019-03-29T06:19:31.269Z,6.43
2019-03-29T06:21:59.558Z,6.51
2019-03-29T06:24:27.897Z,6.58
2019-03-29T06:26:56.289Z,6.68
2019-03-29T06:29:24.952Z,6.76
2019-03-29T06:31:53.524Z,6.83
2019-03-29T06:34:21.851Z,6.93
2019-03-29T06:36:50.648Z,7.00
2019-03-29T06:39:21.377Z,7.08
2019-03-29T06:41:49.895Z,7.15
2019-03-29T06:44:18.223Z,7.25
2019-03-29T06:46:46.599Z,7.36
2019-03-29T06:49:14.909Z,7.45
2019-03-29T06:51:43.259Z,7.57
2019-03-29T06:54:11.684Z,7.70
2019-03-29T06:56:39.981Z,7.83
2019-03-29T06:59:08.575Z,7.89
2019-03-29T07:01:36.875Z,7.95
2019-03-29T07:04:05.196Z,8.05
2019-03-29T07:06:33.477Z,8.16
2019-03-29T07:09:02.034Z,8.22
2019-03-29T07:11:30.391Z,8.29
2019-03-29T07:13:58.704Z,8.37
2019-03-29T07:16:27.044Z,8.39
2019-03-29T07:18:55.427Z,8.47
2019-03-29T07:21:23.740Z,8.56
2019-03-29T07:23:52.049Z,8.64
2019-03-29T07:26:20.630Z,8.71
2019-03-29T07:28:49.027Z,8.79
2019-03-29T07:31:17.346Z,8.87
2019-03-29T07:33:45.655Z,8.92
2019-03-29T07:36:13.976Z,8.98
2019-03-29T07:38:42.276Z,9.07
2019-03-29T07:41:10.892Z,9.14
2019-03-29T07:43:39.210Z,9.22
2019-03-29T07:46:07.808Z,9.32
2019-03-29T07:48:36.450Z,9.42
2019-03-29T07:51:04.772Z,9.51
2019-03-29T07:53:33.609Z,9.57
2019-03-29T07:56:02.190Z,9.62
2019-03-29T07:58:30.774Z,9.74
2019-03-29T08:00:59.333Z,9.86
2019-03-29T08:03:27.952Z,9.93
2019-03-29T08:05:56.258Z,10.00
2019-03-29T08:08:31.795Z,10.10
2019-03-29T08:10:54.623Z,10.19
2019-03-29T08:13:23.058Z,10.31
2019-03-29T08:15:51.357Z,10.42
2019-03-29T08:18:19.685Z,10.52
2019-03-29T08:20:47.987Z,10.59
2019-03-29T08:23:16.310Z,10.70
2019-03-29T08:25:44.688Z,10.81
2019-03-29T08:28:13.021Z,10.90
2019-03-29T08:30:41.344Z,10.96
2019-03-29T08:33:09.667Z,11.03
2019-03-29T08:35:38.056Z,11.09
2019-03-29T08:38:06.503Z,11.14
2019-03-29T08:40:34.999Z,11.15
2019-03-29T08:43:03.359Z,11.19
2019-03-29T08:45:31.685Z,11.23
2019-03-29T08:48:02.165Z,11.31
2019-03-29T08:50:30.036Z,11.40
2019-03-29T08:52:58.349Z,11.46
2019-03-29T08:55:26.713Z,11.50
2019-03-29T08:57:55.035Z,11.56
2019-03-29T09:00:30.942Z,11.64
2019-03-29T09:02:59.255Z,11.76
2019-03-29T09:05:27.865Z,11.87
2019-03-29T09:07:56.266Z,11.92
2019-03-29T09:10:26.203Z,12.02
2019-03-29T09:12:54.550Z,12.11
2019-03-29T09:15:23.485Z,12.18
2019-03-29T09:17:51.802Z,12.28
2019-03-29T09:20:20.140Z,12.36
2019-03-29T09:22:48.450Z,12.41
2019-03-29T09:25:17.033Z,12.50
2019-03-29T09:27:45.380Z,12.62
2019-03-29T09:30:13.994Z,12.73
2019-03-29T09:32:42.683Z,12.79
2019-03-29T09:35:11.066Z,12.83
2019-03-29T09:37:39.655Z,12.88
2019-03-29T09:40:08.447Z,12.94
2019-03-29T09:42:36.754Z,12.95
2019-03-29T09:45:07.257Z,12.98
2019-03-29T09:47:40.174Z,13.03
2019-03-29T09:50:10.348Z,13.09
2019-03-29T09:52:37.422Z,13.15
2019-03-29T09:55:05.743Z,13.21
2019-03-29T09:57:38.243Z,13.25
2019-03-29T10:00:20.647Z,13.29
2019-03-29T10:02:39.120Z,13.34
2019-03-29T10:05:08.024Z,13.41
2019-03-29T10:07:36.324Z,13.43
2019-03-29T10:10:05.703Z,13.45
2019-03-29T10:12:43.317Z,13.48
2019-03-29T10:15:05.655Z,13.49
2019-03-29T10:17:34.118Z,13.52
2019-03-29T10:20:02.708Z,13.62
2019-03-29T10:22:31.026Z,13.66
2019-03-29T10:25:02.210Z,13.69
2019-03-29T10:27:29.665Z,13.74
2019-03-29T10:29:57.965Z,13.76
2019-03-29T10:32:26.289Z,13.79
2019-03-29T10:34:54.601Z,13.88
2019-03-29T10:37:23.005Z,13.97
2019-03-29T10:39:51.657Z,14.05
2019-03-29T10:42:19.967Z,14.09
2019-03-29T10:44:49.583Z,14.10
2019-03-29T10:47:18.309Z,14.14
2019-03-29T10:49:46.902Z,14.14
2019-03-29T10:52:15.218Z,14.20
2019-03-29T10:54:43.510Z,14.27
2019-03-29T10:57:11.819Z,14.32
2019-03-29T10:59:40.412Z,14.35
2019-03-29T11:02:08.819Z,14.41
2019-03-29T11:04:37.140Z,14.40
2019-03-29T11:07:05.454Z,14.44
2019-03-29T11:09:36.845Z,14.44
2019-03-29T11:12:04.255Z,14.43
2019-03-29T11:14:32.570Z,14.41
2019-03-29T11:17:00.868Z,14.44
2019-03-29T11:19:29.171Z,14.55
2019-03-29T11:21:57.484Z,14.59
2019-03-29T11:24:25.806Z,14.67
2019-03-29T11:26:54.105Z,14.63
2019-03-29T11:29:22.425Z,14.67
2019-03-29T11:31:50.739Z,14.69
2019-03-29T11:34:20.989Z,14.71
2019-03-29T11:36:52.380Z,14.73
2019-03-29T11:39:19.209Z,14.75
2019-03-29T11:41:47.501Z,14.71
2019-03-29T11:44:16.146Z,14.61
2019-03-29T11:46:44.636Z,14.59
2019-03-29T11:49:12.938Z,14.64
2019-03-29T11:51:41.244Z,14.78
2019-03-29T11:54:09.546Z,14.90
2019-03-29T11:56:37.867Z,14.94
2019-03-29T11:59:06.157Z,14.94
2019-03-29T12:01:34.474Z,14.95
2019-03-29T12:04:03.067Z,14.96
2019-03-29T12:06:31.653Z,14.94
2019-03-29T12:08:59.964Z,14.86
2019-03-29T12:11:28.285Z,14.88
2019-03-29T12:13:56.587Z,14.91
2019-03-29T12:16:24.888Z,14.93
2019-03-29T12:18:53.264Z,14.98
2019-03-29T12:21:21.578Z,14.99
2019-03-29T12:23:49.869Z,15.06
2019-03-29T12:26:18.183Z,15.11
2019-03-29T12:28:46.500Z,15.18
2019-03-29T12:31:14.804Z,15.24
2019-03-29T12:33:43.116Z,15.27
2019-03-29T12:36:11.418Z,15.35
2019-03-29T12:38:39.821Z,15.37
2019-03-29T12:41:08.168Z,15.43
2019-03-29T12:43:36.488Z,15.52
2019-03-29T12:46:05.541Z,15.57
2019-03-29T12:48:33.847Z,15.61
2019-03-29T12:51:02.133Z,15.64
2019-03-29T12:53:30.515Z,15.70
2019-03-29T12:55:58.812Z,15.78
2019-03-29T12:58:27.094Z,15.78
2019-03-29T13:00:55.697Z,15.74
2019-03-29T13:03:25.372Z,15.76
2019-03-29T13:05:53.681Z,15.87
2019-03-29T13:08:21.982Z,15.82
2019-03-29T13:10:50.473Z,15.85
2019-03-29T13:13:18.764Z,15.93
2019-03-29T13:15:47.100Z,15.90
2019-03-29T13:18:15.485Z,15.90
2019-03-29T13:20:43.809Z,15.91
2019-03-29T13:23:12.110Z,15.93
2019-03-29T13:25:40.414Z,15.99
2019-03-29T13:28:08.715Z,16.10
2019-03-29T13:30:37.243Z,16.21
2019-03-29T13:33:05.667Z,16.18
2019-03-29T13:35:34.321Z,16.13
2019-03-29T13:38:02.873Z,16.05
2019-03-29T13:40:31.346Z,16.00
2019-03-29T13:42:59.635Z,16.00
2019-03-29T13:45:28.235Z,16.02
2019-03-29T13:47:56.520Z,16.05
2019-03-29T13:50:24.821Z,16.14
2019-03-29T13:52:53.119Z,16.21
2019-03-29T13:55:21.443Z,16.32
2019-03-29T13:57:50.021Z,16.41
2019-03-29T14:00:18.570Z,16.38
2019-03-29T14:02:46.926Z,16.33
2019-03-29T14:05:15.229Z,16.37
2019-03-29T14:07:43.557Z,16.44
2019-03-29T14:10:12.083Z,16.47
2019-03-29T14:12:40.413Z,16.46
2019-03-29T14:15:10.216Z,16.41
2019-03-29T14:17:38.518Z,16.32
2019-03-29T14:20:07.558Z,16.36
2019-03-29T14:22:35.929Z,16.37
2019-03-29T14:25:06.112Z,16.35
2019-03-29T14:27:34.401Z,16.40
2019-03-29T14:30:04.557Z,16.51
2019-03-29T14:32:33.156Z,16.53
2019-03-29T14:35:01.744Z,16.59
2019-03-29T14:37:30.042Z,16.62
2019-03-29T14:39:58.362Z,16.57
2019-03-29T14:42:26.647Z,16.56
2019-03-29T14:44:54.954Z,16.62
2019-03-29T14:47:23.247Z,16.68
2019-03-29T14:49:51.559Z,16.74
2019-03-29T14:52:20.193Z,16.66
2019-03-29T14:54:48.783Z,16.66
2019-03-29T14:57:17.073Z,16.70
2019-03-29T14:59:45.402Z,16.72
2019-03-29T15:02:13.703Z,16.71
2019-03-29T15:04:42.040Z,16.72
2019-03-29T15:07:10.397Z,16.71
2019-03-29T15:09:38.724Z,16.73
2019-03-29T15:12:07.342Z,16.74
2019-03-29T15:14:35.779Z,16.72
2019-03-29T15:17:04.077Z,16.75
2019-03-29T15:19:32.402Z,16.77
2019-03-29T15:22:00.688Z,16.77
2019-03-29T15:24:28.988Z,16.81
2019-03-29T15:26:57.272Z,16.83
2019-03-29T15:29:25.606Z,16.88
2019-03-29T15:31:53.913Z,16.90
2019-03-29T15:34:22.233Z,16.87
2019-03-29T15:36:50.537Z,16.83
2019-03-29T15:39:18.840Z,16.81
2019-03-29T15:41:47.156Z,16.84
2019-03-29T15:44:15.446Z,16.84
2019-03-29T15:46:43.763Z,16.84
2019-03-29T15:49:12.068Z,16.82
2019-03-29T15:51:40.660Z,16.78
2019-03-29T15:54:08.949Z,16.76
2019-03-29T15:56:37.520Z,16.73
2019-03-29T15:59:06.106Z,16.73
2019-03-29T16:01:34.706Z,16.74
2019-03-29T16:04:03.277Z,16.72
2019-03-29T16:06:31.602Z,16.71
2019-03-29T16:08:59.885Z,16.68
2019-03-29T16:11:28.235Z,16.63
2019-03-29T16:13:56.554Z,16.64
2019-03-29T16:16:24.853Z,16.62
2019-03-29T16:18:53.186Z,16.66
2019-03-29T16:21:21.824Z,16.66
2019-03-29T16:23:50.138Z,16.64
2019-03-29T16:26:18.420Z,16.65
2019-03-29T16:28:47.064Z,16.63
2019-03-29T16:31:15.361Z,16.58
2019-03-29T16:33:43.795Z,16.60
2019-03-29T16:36:12.120Z,16.57
2019-03-29T16:38:40.429Z,16.52
2019-03-29T16:41:08.722Z,16.46
2019-03-29T16:43:37.352Z,16.40
2019-03-29T16:46:05.744Z,16.34
2019-03-29T16:48:34.058Z,16.33
2019-03-29T16:51:02.404Z,16.30
2019-03-29T16:53:31.155Z,16.27
2019-03-29T16:55:59.736Z,16.22
2019-03-29T16:58:28.050Z,16.18
2019-03-29T17:00:56.349Z,16.18
2019-03-29T17:03:24.984Z,16.15
2019-03-29T17:05:53.313Z,16.16
2019-03-29T17:08:21.840Z,16.14
2019-03-29T17:10:50.162Z,16.09
2019-03-29T17:13:18.896Z,16.07
2019-03-29T17:16:00.743Z,16.07
2019-03-29T17:18:28.736Z,16.02
2019-03-29T17:20:47.923Z,15.99
2019-03-29T17:23:16.231Z,15.91
2019-03-29T17:25:44.546Z,15.92
2019-03-29T17:28:12.848Z,15.89
2019-03-29T17:30:46.208Z,15.86
2019-03-29T17:33:14.952Z,15.79
2019-03-29T17:35:43.272Z,15.70
2019-03-29T17:38:11.577Z,15.66
2019-03-29T17:40:39.899Z,15.56
2019-03-29T17:43:08.202Z,15.49
2019-03-29T17:45:36.525Z,15.45
2019-03-29T17:48:05.791Z,15.41
2019-03-29T17:50:34.165Z,15.39
2019-03-29T17:53:02.546Z,15.37
2019-03-29T17:55:31.965Z,15.33
2019-03-29T17:58:00.392Z,15.27
2019-03-29T18:00:29.168Z,15.20
2019-03-29T18:02:57.458Z,15.12
2019-03-29T18:05:26.125Z,15.03
2019-03-29T18:07:54.410Z,14.93
2019-03-29T18:10:22.728Z,14.81
2019-03-29T18:12:51.187Z,14.70
2019-03-29T18:15:20.003Z,14.61
2019-03-29T18:17:48.637Z,14.49
2019-03-29T18:20:17.224Z,14.41
2019-03-29T18:22:45.624Z,14.35
2019-03-29T18:25:14.217Z,14.33
2019-03-29T18:27:42.530Z,14.26
2019-03-29T18:30:12.542Z,14.17
2019-03-29T18:32:40.850Z,14.09
2019-03-29T18:35:10.762Z,14.03
2019-03-29T18:37:39.271Z,14.00
2019-03-29T18:40:10.997Z,13.94
2019-03-29T18:42:39.302Z,13.88
2019-03-29T18:45:08.081Z,13.83
2019-03-29T18:47:36.398Z,13.74
2019-03-29T18:50:05.769Z,13.70
2019-03-29T18:52:34.090Z,13.66
2019-03-29T18:55:02.418Z,13.64
2019-03-29T18:57:30.752Z,13.56
2019-03-29T18:59:59.050Z,13.48
2019-03-29T19:02:27.636Z,13.39
2019-03-29T19:04:55.939Z,13.34
2019-03-29T19:07:28.637Z,13.28
2019-03-29T19:09:57.016Z,13.25
2019-03-29T19:12:25.342Z,13.24
2019-03-29T19:14:53.651Z,13.20
2019-03-29T19:17:22.235Z,13.14
2019-03-29T19:19:50.607Z,13.12
2019-03-29T19:22:19.330Z,13.06
2019-03-29T19:24:47.900Z,13.00
2019-03-29T19:27:16.238Z,12.96
2019-03-29T19:29:44.551Z,12.94
2019-03-29T19:32:12.850Z,12.87
2019-03-29T19:34:41.163Z,12.79
2019-03-29T19:37:09.490Z,12.70
2019-03-29T19:39:37.883Z,12.62
2019-03-29T19:42:06.184Z,12.53
2019-03-29T19:44:34.497Z,12.44
2019-03-29T19:47:13.346Z,12.36
2019-03-29T19:49:32.840Z,12.28
2019-03-29T19:52:01.149Z,12.23
2019-03-29T19:54:29.498Z,12.19
2019-03-29T19:56:57.775Z,12.13
2019-03-29T19:59:26.430Z,12.05
2019-03-29T20:01:54.988Z,11.98
2019-03-29T20:04:23.289Z,11.89
2019-03-29T20:06:51.608Z,11.83
2019-03-29T20:09:20.208Z,11.77
2019-03-29T20:11:48.796Z,11.70
2019-03-29T20:14:17.124Z,11.65
2019-03-29T20:16:45.454Z,11.57
2019-03-29T20:19:13.869Z,11.51
2019-03-29T20:21:42.260Z,11.50
2019-03-29T20:24:10.591Z,11.49
2019-03-29T20:26:38.903Z,11.51
2019-03-29T20:29:07.237Z,11.55
2019-03-29T20:31:35.574Z,11.52
2019-03-29T20:34:03.930Z,11.43
2019-03-29T20:36:32.273Z,11.33
2019-03-29T20:39:00.584Z,11.23
2019-03-29T20:41:29.006Z,11.20
2019-03-29T20:43:57.338Z,11.21
2019-03-29T20:46:25.670Z,11.24
2019-03-29T20:48:53.966Z,11.25
2019-03-29T20:51:22.864Z,11.23
2019-03-29T20:53:51.202Z,11.14
2019-03-29T20:56:19.513Z,11.06
2019-03-29T20:58:48.201Z,10.97
2019-03-29T21:01:16.748Z,10.90
2019-03-29T21:03:45.097Z,10.85
2019-03-29T21:06:13.405Z,10.78
2019-03-29T21:08:41.744Z,10.74
2019-03-29T21:11:10.058Z,10.68
2019-03-29T21:13:38.455Z,10.67
2019-03-29T21:16:07.432Z,10.71
2019-03-29T21:18:35.747Z,10.69
2019-03-29T21:21:04.064Z,10.65
2019-03-29T21:23:32.397Z,10.59
2019-03-29T21:26:00.728Z,10.52
2019-03-29T21:28:29.040Z,10.46
2019-03-29T21:30:57.351Z,10.41
2019-03-29T21:33:25.647Z,10.39
2019-03-29T21:35:53.973Z,10.34
2019-03-29T21:38:22.292Z,10.27
2019-03-29T21:40:50.605Z,10.21
2019-03-29T21:43:18.928Z,10.14
2019-03-29T21:45:47.310Z,10.10
2019-03-29T21:48:28.559Z,10.09
2019-03-29T21:50:45.650Z,10.10
2019-03-29T21:53:15.177Z,10.07
2019-03-29T21:55:43.506Z,10.05
2019-03-29T21:58:11.836Z,10.04
2019-03-29T22:00:40.422Z,10.04
2019-03-29T22:03:08.731Z,10.03
2019-03-29T22:05:37.050Z,10.05
2019-03-29T22:08:05.603Z,10.06
2019-03-29T22:10:34.083Z,10.05
2019-03-29T22:13:02.411Z,10.03
2019-03-29T22:15:30.719Z,10.00
2019-03-29T22:17:59.125Z,9.94
2019-03-29T22:20:27.668Z,9.91
2019-03-29T22:22:55.995Z,9.85
2019-03-29T22:25:24.290Z,9.77
2019-03-29T22:27:52.613Z,9.72
2019-03-29T22:30:21.102Z,9.62
2019-03-29T22:32:49.423Z,9.60
2019-03-29T22:35:17.737Z,9.60
2019-03-29T22:37:46.316Z,9.60
2019-03-29T22:40:14.635Z,9.56
2019-03-29T22:42:42.943Z,9.54
2019-03-29T22:45:11.324Z,9.51
2019-03-29T22:47:39.651Z,9.51
2019-03-29T22:50:08.494Z,9.52
2019-03-29T22:52:37.353Z,9.50
2019-03-29T22:55:07.292Z,9.46
2019-03-29T22:57:35.588Z,9.38
2019-03-29T23:00:12.832Z,9.29
2019-03-29T23:02:41.199Z,9.27
2019-03-29T23:05:09.593Z,9.29
2019-03-29T23:07:37.952Z,9.24
2019-03-29T23:10:06.834Z,9.18
2019-03-29T23:12:35.158Z,9.13
2019-03-29T23:15:04.297Z,9.09
2019-03-29T23:17:32.604Z,9.02
2019-03-29T23:20:00.892Z,8.96
2019-03-29T23:22:29.212Z,8.92
2019-03-29T23:24:57.794Z,8.87
2019-03-29T23:27:26.111Z,8.83
2019-03-29T23:29:54.485Z,8.79
2019-03-29T23:32:22.788Z,8.78
2019-03-29T23:34:51.076Z,8.75
2019-03-29T23:37:19.383Z,8.71
2019-03-29T23:39:47.697Z,8.66
2019-03-29T23:42:15.987Z,8.64
2019-03-29T23:44:44.533Z,8.63
2019-03-29T23:47:13.311Z,8.63
2019-03-29T23:49:41.640Z,8.61
2019-03-29T23:52:09.924Z,8.60
2019-03-29T23:54:38.265Z,8.54
2019-03-29T23:57:06.941Z,8.48
2019-03-29T23:59:35.285Z,8.40
